createdAt,value
2019-04-29T00:26:50.286Z,5.40
2019-04-29T00:26:50.859Z,5.38
2019-04-29T00:26:51.458Z,5.49
2019-04-29T00:26:52.058Z,5.48
2019-04-29T00:26:52.659Z,5.35
2019-04-29T00:26:53.260Z,5.43
2019-04-29T00:27:48.945Z,5.49
2019-04-29T00:27:49.534Z,5.43
2019-04-29T00:27:50.135Z,5.41
2019-04-29T00:27:50.735Z,5.43
2019-04-29T00:27:51.354Z,5.45
2019-04-29T00:27:51.934Z,5.35
2019-04-29T00:28:46.592Z,5.48
2019-04-29T00:28:50.246Z,5.52
2019-04-29T00:28:50.357Z,5.50
2019-04-29T00:28:50.438Z,5.52
2019-04-29T00:28:50.459Z,5.40
2019-04-29T00:28:50.797Z,5.37
2019-04-29T00:29:45.266Z,5.49
2019-04-29T00:29:45.868Z,5.38
2019-04-29T00:29:46.466Z,5.49
2019-04-29T00:29:47.063Z,5.45
2019-04-29T00:29:47.663Z,5.41
2019-04-29T00:30:42.921Z,5.40
2019-04-29T00:30:43.518Z,5.40
2019-04-29T00:30:44.116Z,5.38
2019-04-29T00:30:44.716Z,5.43
2019-04-29T00:30:45.319Z,5.41
2019-04-29T00:30:45.919Z,5.34
2019-04-29T00:31:40.604Z,5.45
2019-04-29T00:31:41.170Z,5.46
2019-04-29T00:31:41.774Z,5.35
2019-04-29T00:31:42.368Z,5.37
2019-04-29T00:31:42.969Z,5.48
2019-04-29T00:31:43.568Z,5.45
2019-04-29T00:32:38.230Z,5.48
2019-04-29T00:32:38.821Z,5.50
2019-04-29T00:32:39.420Z,5.46
2019-04-29T00:32:40.020Z,5.43
2019-04-29T00:32:40.621Z,5.48
2019-04-29T00:33:35.879Z,5.40
2019-04-29T00:33:36.475Z,5.35
2019-04-29T00:33:37.072Z,5.46
2019-04-29T00:33:37.674Z,5.37
2019-04-29T00:33:38.272Z,5.45
2019-04-29T00:33:38.872Z,5.41
2019-04-29T00:34:33.529Z,5.48
2019-04-29T00:34:34.125Z,5.49
2019-04-29T00:34:34.724Z,5.46
2019-04-29T00:34:35.324Z,5.48
2019-04-29T00:34:35.977Z,5.50
2019-04-29T00:34:36.524Z,5.50
2019-04-29T00:35:31.180Z,5.55
2019-04-29T00:35:31.775Z,5.50
2019-04-29T00:35:32.379Z,5.48
2019-04-29T00:35:32.977Z,5.52
2019-04-29T00:35:33.576Z,5.52
2019-04-29T00:36:28.831Z,5.49
2019-04-29T00:36:29.427Z,5.50
2019-04-29T00:36:30.027Z,5.57
2019-04-29T00:36:30.627Z,5.52
2019-04-29T00:36:31.227Z,5.49
2019-04-29T00:36:31.828Z,5.48
2019-04-29T00:37:27.531Z,5.55
2019-04-29T00:37:28.105Z,5.48
2019-04-29T00:37:28.704Z,5.50
2019-04-29T00:37:29.303Z,5.52
2019-04-29T00:37:29.904Z,5.50
2019-04-29T00:37:30.503Z,5.49
2019-04-29T00:38:25.159Z,5.46
2019-04-29T00:38:25.757Z,5.50
2019-04-29T00:38:26.355Z,5.52
2019-04-29T00:38:26.955Z,5.56
2019-04-29T00:38:27.555Z,5.53
2019-04-29T00:38:29.358Z,5.53
2019-04-29T00:39:23.836Z,5.46
2019-04-29T00:39:24.438Z,5.48
2019-04-29T00:39:25.030Z,5.52
2019-04-29T00:39:25.631Z,5.45
2019-04-29T00:39:26.232Z,5.53
2019-04-29T00:40:21.538Z,5.45
2019-04-29T00:40:22.083Z,5.56
2019-04-29T00:40:22.683Z,5.56
2019-04-29T00:40:23.283Z,5.53
2019-04-29T00:40:23.883Z,5.52
2019-04-29T00:40:24.483Z,5.56
2019-04-29T00:41:20.162Z,5.52
2019-04-29T00:41:20.763Z,5.60
2019-04-29T00:41:21.358Z,5.57
2019-04-29T00:41:21.961Z,5.59
2019-04-29T00:41:22.559Z,5.52
2019-04-29T00:41:23.158Z,5.56
2019-04-29T00:42:17.847Z,5.57
2019-04-29T00:42:18.412Z,5.63
2019-04-29T00:42:19.013Z,5.55
2019-04-29T00:42:19.611Z,5.57
2019-04-29T00:42:20.212Z,5.59
2019-04-29T00:42:22.015Z,5.64
2019-04-29T00:43:16.490Z,5.57
2019-04-29T00:43:17.088Z,5.63
2019-04-29T00:43:17.688Z,5.52
2019-04-29T00:43:18.285Z,5.57
2019-04-29T00:43:18.886Z,5.63
2019-04-29T00:44:15.166Z,5.67
2019-04-29T00:44:15.763Z,5.64
2019-04-29T00:44:16.366Z,5.66
2019-04-29T00:44:16.963Z,5.64
2019-04-29T00:44:17.561Z,5.73
2019-04-29T00:44:18.161Z,5.67
2019-04-29T00:45:13.842Z,5.70
2019-04-29T00:45:14.450Z,5.73
2019-04-29T00:45:15.037Z,5.74
2019-04-29T00:45:15.638Z,5.66
2019-04-29T00:45:16.238Z,5.71
2019-04-29T00:45:16.839Z,5.67
2019-04-29T00:46:12.518Z,5.74
2019-04-29T00:46:13.117Z,5.59
2019-04-29T00:46:13.714Z,5.75
2019-04-29T00:46:14.315Z,5.78
2019-04-29T00:46:14.914Z,5.78
2019-04-29T00:46:15.514Z,5.78
2019-04-29T00:47:10.170Z,5.73
2019-04-29T00:47:10.769Z,5.64
2019-04-29T00:47:11.367Z,5.68
2019-04-29T00:47:11.968Z,5.64
2019-04-29T00:47:12.567Z,5.67
2019-04-29T00:48:08.869Z,5.81
2019-04-29T00:48:09.441Z,5.78
2019-04-29T00:48:10.042Z,5.66
2019-04-29T00:48:10.641Z,5.66
2019-04-29T00:48:11.240Z,5.75
2019-04-29T00:48:11.842Z,5.73
2019-04-29T00:49:06.498Z,5.75
2019-04-29T00:49:07.098Z,5.82
2019-04-29T00:49:07.694Z,5.73
2019-04-29T00:49:08.296Z,5.78
2019-04-29T00:49:08.895Z,5.78
2019-04-29T00:49:09.495Z,5.85
2019-04-29T00:50:04.151Z,5.70
2019-04-29T00:50:04.746Z,5.74
2019-04-29T00:50:05.403Z,5.71
2019-04-29T00:50:05.945Z,5.83
2019-04-29T00:50:06.547Z,5.82
2019-04-29T00:51:02.823Z,5.81
2019-04-29T00:51:03.421Z,5.78
2019-04-29T00:51:04.021Z,5.75
2019-04-29T00:51:04.622Z,5.75
2019-04-29T00:51:05.221Z,5.78
2019-04-29T00:51:05.821Z,5.73
2019-04-29T00:52:00.476Z,5.77
2019-04-29T00:52:01.072Z,5.75
2019-04-29T00:52:01.673Z,5.78
2019-04-29T00:52:02.272Z,5.85
2019-04-29T00:52:02.872Z,5.85
2019-04-29T00:52:03.472Z,5.81
2019-04-29T00:52:59.151Z,5.74
2019-04-29T00:52:59.747Z,5.86
2019-04-29T00:53:00.348Z,5.89
2019-04-29T00:53:00.949Z,5.85
2019-04-29T00:53:01.552Z,5.82
2019-04-29T00:53:03.348Z,5.89
2019-04-29T00:53:56.829Z,5.82
2019-04-29T00:53:57.401Z,5.86
2019-04-29T00:53:58.002Z,5.86
2019-04-29T00:53:58.601Z,5.86
2019-04-29T00:53:59.201Z,5.86
2019-04-29T00:54:55.480Z,5.82
2019-04-29T00:54:56.077Z,5.88
2019-04-29T00:54:56.676Z,5.86
2019-04-29T00:54:57.274Z,5.91
2019-04-29T00:54:57.875Z,5.88
2019-04-29T00:54:58.475Z,5.91
2019-04-29T00:55:53.131Z,5.92
2019-04-29T00:55:53.729Z,5.89
2019-04-29T00:55:54.328Z,5.91
2019-04-29T00:55:54.929Z,5.93
2019-04-29T00:55:55.528Z,5.91
2019-04-29T00:55:56.127Z,5.92
2019-04-29T00:56:51.814Z,5.96
2019-04-29T00:56:52.406Z,6.00
2019-04-29T00:56:53.007Z,6.03
2019-04-29T00:56:53.604Z,6.01
2019-04-29T00:56:54.203Z,5.93
2019-04-29T00:56:56.003Z,6.01
2019-04-29T00:57:49.460Z,6.00
2019-04-29T00:57:50.056Z,5.95
2019-04-29T00:57:50.655Z,6.00
2019-04-29T00:57:51.255Z,6.00
2019-04-29T00:57:51.856Z,5.98
2019-04-29T00:58:48.133Z,6.01
2019-04-29T00:58:48.730Z,6.00
2019-04-29T00:58:49.333Z,5.93
2019-04-29T00:58:49.932Z,6.01
2019-04-29T00:58:50.531Z,5.96
2019-04-29T00:58:51.132Z,5.98
2019-04-29T00:59:46.842Z,5.96
2019-04-29T00:59:47.407Z,6.06
2019-04-29T00:59:48.007Z,5.92
2019-04-29T00:59:48.606Z,5.93
2019-04-29T00:59:49.206Z,6.04
2019-04-29T00:59:49.806Z,6.01
2019-04-29T01:00:45.485Z,6.09
2019-04-29T01:00:46.083Z,6.09
2019-04-29T01:00:46.681Z,6.06
2019-04-29T01:00:47.286Z,6.04
2019-04-29T01:00:47.882Z,6.01
2019-04-29T01:00:48.482Z,6.04
2019-04-29T01:01:44.161Z,5.98
2019-04-29T01:01:44.759Z,6.04
2019-04-29T01:01:45.361Z,6.04
2019-04-29T01:01:45.958Z,6.03
2019-04-29T01:01:46.558Z,6.01
2019-04-29T01:01:48.357Z,6.06
2019-04-29T01:02:41.815Z,6.09
2019-04-29T01:02:42.417Z,6.00
2019-04-29T01:02:43.011Z,6.10
2019-04-29T01:02:43.610Z,6.11
2019-04-29T01:02:44.212Z,6.04
2019-04-29T01:03:41.269Z,6.06
2019-04-29T01:03:41.345Z,6.04
2019-04-29T01:03:41.685Z,6.10
2019-04-29T01:03:42.286Z,6.06
2019-04-29T01:03:42.886Z,6.07
2019-04-29T01:03:43.486Z,6.07
2019-04-29T01:04:39.165Z,6.13
2019-04-29T01:04:39.762Z,6.10
2019-04-29T01:04:40.361Z,6.09
2019-04-29T01:04:40.960Z,6.11
2019-04-29T01:04:41.562Z,6.03
2019-04-29T01:04:42.205Z,6.06
2019-04-29T01:05:37.865Z,6.06
2019-04-29T01:05:38.436Z,6.03
2019-04-29T01:05:39.041Z,6.04
2019-04-29T01:05:39.636Z,6.04
2019-04-29T01:05:40.239Z,6.01
2019-04-29T01:05:40.836Z,6.10
2019-04-29T01:06:36.517Z,6.07
2019-04-29T01:06:37.114Z,6.09
2019-04-29T01:06:37.715Z,6.06
2019-04-29T01:06:38.312Z,6.01
2019-04-29T01:06:38.912Z,6.10
2019-04-29T01:06:40.712Z,6.10
2019-04-29T01:07:34.169Z,6.19
2019-04-29T01:07:34.765Z,6.07
2019-04-29T01:07:35.365Z,6.16
2019-04-29T01:07:35.966Z,6.14
2019-04-29T01:07:36.565Z,6.14
2019-04-29T01:08:32.844Z,6.18
2019-04-29T01:08:33.441Z,6.09
2019-04-29T01:08:34.040Z,6.14
2019-04-29T01:08:34.640Z,6.19
2019-04-29T01:08:35.240Z,6.18
2019-04-29T01:08:35.842Z,6.14
2019-04-29T01:09:30.496Z,6.13
2019-04-29T01:09:31.092Z,6.18
2019-04-29T01:09:31.695Z,6.16
2019-04-29T01:09:32.293Z,6.11
2019-04-29T01:09:32.893Z,6.14
2019-04-29T01:09:33.493Z,6.16
2019-04-29T01:10:29.170Z,6.11
2019-04-29T01:10:29.771Z,6.18
2019-04-29T01:10:30.368Z,6.18
2019-04-29T01:10:30.968Z,6.11
2019-04-29T01:10:31.571Z,6.21
2019-04-29T01:10:33.367Z,6.11
2019-04-29T01:11:26.847Z,6.18
2019-04-29T01:11:27.421Z,6.21
2019-04-29T01:11:28.022Z,6.19
2019-04-29T01:11:28.620Z,6.18
2019-04-29T01:11:29.220Z,6.26
2019-04-29T01:12:25.498Z,6.13
2019-04-29T01:12:26.095Z,6.26
2019-04-29T01:12:26.695Z,6.29
2019-04-29T01:12:27.299Z,6.22
2019-04-29T01:12:27.896Z,6.26
2019-04-29T01:12:28.495Z,6.18
2019-04-29T01:13:23.149Z,6.22
2019-04-29T01:13:23.748Z,6.26
2019-04-29T01:13:24.348Z,6.19
2019-04-29T01:13:24.948Z,6.19
2019-04-29T01:13:25.553Z,6.19
2019-04-29T01:13:26.148Z,6.19
2019-04-29T01:14:21.826Z,6.19
2019-04-29T01:14:22.422Z,6.22
2019-04-29T01:14:23.022Z,6.22
2019-04-29T01:14:23.622Z,6.18
2019-04-29T01:14:24.223Z,6.26
2019-04-29T01:14:26.022Z,6.26
2019-04-29T01:15:20.502Z,6.16
2019-04-29T01:15:21.099Z,6.19
2019-04-29T01:15:21.699Z,6.26
2019-04-29T01:15:22.299Z,6.19
2019-04-29T01:15:22.897Z,6.21
2019-04-29T01:16:19.201Z,6.22
2019-04-29T01:16:19.779Z,6.21
2019-04-29T01:16:20.376Z,6.25
2019-04-29T01:16:20.973Z,6.25
2019-04-29T01:16:21.573Z,6.19
2019-04-29T01:16:22.173Z,6.22
2019-04-29T01:17:17.852Z,6.22
2019-04-29T01:17:18.450Z,6.19
2019-04-29T01:17:19.048Z,6.28
2019-04-29T01:17:19.649Z,6.29
2019-04-29T01:17:20.249Z,6.21
2019-04-29T01:17:20.850Z,6.22
2019-04-29T01:18:16.529Z,6.28
2019-04-29T01:18:17.126Z,6.35
2019-04-29T01:18:17.724Z,6.19
2019-04-29T01:18:18.324Z,6.26
2019-04-29T01:18:18.925Z,6.22
2019-04-29T01:18:19.524Z,6.28
2019-04-29T01:19:15.204Z,6.22
2019-04-29T01:19:15.802Z,6.19
2019-04-29T01:19:16.402Z,6.30
2019-04-29T01:19:17.046Z,6.25
2019-04-29T01:19:17.600Z,6.30
2019-04-29T01:19:19.400Z,6.22
2019-04-29T01:20:13.880Z,6.29
2019-04-29T01:20:14.477Z,6.30
2019-04-29T01:20:15.076Z,6.30
2019-04-29T01:20:15.677Z,6.33
2019-04-29T01:20:16.277Z,6.29
2019-04-29T01:21:11.561Z,6.32
2019-04-29T01:21:12.130Z,6.33
2019-04-29T01:21:12.729Z,6.35
2019-04-29T01:21:13.330Z,6.30
2019-04-29T01:21:13.928Z,6.32
2019-04-29T01:21:14.527Z,6.33
2019-04-29T01:22:09.191Z,6.33
2019-04-29T01:22:09.779Z,6.32
2019-04-29T01:22:10.380Z,6.36
2019-04-29T01:22:11.032Z,6.40
2019-04-29T01:22:11.580Z,6.41
2019-04-29T01:22:12.179Z,6.35
2019-04-29T01:23:07.861Z,6.46
2019-04-29T01:23:08.457Z,6.44
2019-04-29T01:23:09.056Z,6.40
2019-04-29T01:23:09.656Z,6.44
2019-04-29T01:23:10.255Z,6.38
2019-04-29T01:23:12.055Z,6.29
2019-04-29T01:24:06.534Z,6.43
2019-04-29T01:24:07.132Z,6.38
2019-04-29T01:24:07.731Z,6.38
2019-04-29T01:24:08.333Z,6.38
2019-04-29T01:24:08.933Z,6.40
2019-04-29T01:25:04.187Z,6.35
2019-04-29T01:25:04.784Z,6.40
2019-04-29T01:25:05.384Z,6.43
2019-04-29T01:25:05.986Z,6.43
2019-04-29T01:25:06.586Z,6.46
2019-04-29T01:25:07.186Z,6.36
2019-04-29T01:26:02.887Z,6.43
2019-04-29T01:26:03.463Z,6.30
2019-04-29T01:26:04.059Z,6.41
2019-04-29T01:26:04.661Z,6.43
2019-04-29T01:26:05.259Z,6.44
2019-04-29T01:26:05.858Z,6.36
2019-04-29T01:27:00.515Z,6.44
2019-04-29T01:27:01.113Z,6.33
2019-04-29T01:27:01.713Z,6.47
2019-04-29T01:27:02.312Z,6.40
2019-04-29T01:27:02.911Z,6.40
2019-04-29T01:27:04.711Z,6.36
2019-04-29T01:27:58.167Z,6.33
2019-04-29T01:27:58.763Z,6.46
2019-04-29T01:27:59.422Z,6.44
2019-04-29T01:27:59.963Z,6.36
2019-04-29T01:28:00.563Z,6.36
2019-04-29T01:28:56.885Z,6.30
2019-04-29T01:28:57.438Z,6.32
2019-04-29T01:28:58.037Z,6.44
2019-04-29T01:28:58.639Z,6.43
2019-04-29T01:28:59.238Z,6.35
2019-04-29T01:28:59.838Z,6.47
2019-04-29T01:29:54.494Z,6.40
2019-04-29T01:29:55.091Z,6.33
2019-04-29T01:29:55.691Z,6.40
2019-04-29T01:29:56.292Z,6.35
2019-04-29T01:29:56.890Z,6.41
2019-04-29T01:29:57.492Z,6.33
2019-04-29T01:30:53.170Z,6.32
2019-04-29T01:30:53.826Z,6.36
2019-04-29T01:30:54.366Z,6.41
2019-04-29T01:30:54.966Z,6.30
2019-04-29T01:30:55.566Z,6.35
2019-04-29T01:30:57.367Z,6.44
2019-04-29T01:31:51.868Z,6.36
2019-04-29T01:31:52.440Z,6.33
2019-04-29T01:31:53.042Z,6.30
2019-04-29T01:31:53.641Z,6.41
2019-04-29T01:31:54.244Z,6.29
2019-04-29T01:32:50.521Z,6.38
2019-04-29T01:32:51.118Z,6.33
2019-04-29T01:32:51.717Z,6.35
2019-04-29T01:32:52.317Z,6.35
2019-04-29T01:32:52.917Z,6.35
2019-04-29T01:32:53.518Z,6.44
2019-04-29T01:33:49.195Z,6.32
2019-04-29T01:33:49.794Z,6.43
2019-04-29T01:33:50.393Z,6.35
2019-04-29T01:33:50.993Z,6.44
2019-04-29T01:33:51.593Z,6.44
2019-04-29T01:33:52.194Z,6.36
2019-04-29T01:34:47.871Z,6.30
2019-04-29T01:34:48.469Z,6.44
2019-04-29T01:34:49.068Z,6.36
2019-04-29T01:34:49.667Z,6.35
2019-04-29T01:34:50.270Z,6.44
2019-04-29T01:34:50.873Z,6.43
2019-04-29T01:35:45.527Z,6.35
2019-04-29T01:35:46.123Z,6.44
2019-04-29T01:35:46.722Z,6.35
2019-04-29T01:35:47.322Z,6.30
2019-04-29T01:35:47.922Z,6.33
2019-04-29T01:36:43.203Z,6.35
2019-04-29T01:36:43.773Z,6.33
2019-04-29T01:36:44.373Z,6.43
2019-04-29T01:36:44.975Z,6.36
2019-04-29T01:36:45.573Z,6.33
2019-04-29T01:36:46.171Z,6.35
2019-04-29T01:37:41.892Z,6.30
2019-04-29T01:37:42.447Z,6.33
2019-04-29T01:37:43.047Z,6.41
2019-04-29T01:37:43.647Z,6.43
2019-04-29T01:37:44.248Z,6.32
2019-04-29T01:37:44.848Z,6.43
2019-04-29T01:38:40.527Z,6.35
2019-04-29T01:38:41.124Z,6.30
2019-04-29T01:38:41.725Z,6.32
2019-04-29T01:38:42.324Z,6.32
2019-04-29T01:38:42.924Z,6.30
2019-04-29T01:38:43.523Z,6.32
2019-04-29T01:39:38.190Z,6.35
2019-04-29T01:39:38.775Z,6.36
2019-04-29T01:39:39.376Z,6.32
2019-04-29T01:39:39.978Z,6.32
2019-04-29T01:39:40.576Z,6.43
2019-04-29T01:40:35.834Z,6.33
2019-04-29T01:40:36.429Z,6.36
2019-04-29T01:40:37.028Z,6.44
2019-04-29T01:40:37.628Z,6.41
2019-04-29T01:40:38.226Z,6.44
2019-04-29T01:40:38.827Z,6.40
2019-04-29T01:41:33.507Z,6.32
2019-04-29T01:41:34.080Z,6.32
2019-04-29T01:41:34.679Z,6.33
2019-04-29T01:41:35.279Z,6.35
2019-04-29T01:41:35.880Z,6.30
2019-04-29T01:41:36.479Z,6.35
2019-04-29T01:42:31.135Z,6.32
2019-04-29T01:42:31.731Z,6.33
2019-04-29T01:42:32.331Z,6.40
2019-04-29T01:42:32.937Z,6.41
2019-04-29T01:42:33.531Z,6.38
2019-04-29T01:43:29.811Z,6.41
2019-04-29T01:43:30.407Z,6.41
2019-04-29T01:43:31.007Z,6.30
2019-04-29T01:43:31.607Z,6.43
2019-04-29T01:43:32.206Z,6.33
2019-04-29T01:43:32.806Z,6.44
2019-04-29T01:44:27.462Z,6.38
2019-04-29T01:44:28.059Z,6.35
2019-04-29T01:44:28.658Z,6.33
2019-04-29T01:44:29.259Z,6.33
2019-04-29T01:44:29.859Z,6.32
2019-04-29T01:44:30.460Z,6.41
2019-04-29T01:45:25.114Z,6.30
2019-04-29T01:45:25.717Z,6.33
2019-04-29T01:45:26.309Z,6.30
2019-04-29T01:45:26.909Z,6.35
2019-04-29T01:45:27.509Z,6.30
2019-04-29T01:46:23.813Z,6.33
2019-04-29T01:46:24.386Z,6.29
2019-04-29T01:46:24.990Z,6.33
2019-04-29T01:46:25.585Z,6.35
2019-04-29T01:46:26.186Z,6.40
2019-04-29T01:46:26.784Z,6.32
2019-04-29T01:47:22.464Z,6.33
2019-04-29T01:47:23.063Z,6.30
2019-04-29T01:47:23.665Z,6.28
2019-04-29T01:47:24.260Z,6.30
2019-04-29T01:47:24.861Z,6.30
2019-04-29T01:47:25.460Z,6.33
2019-04-29T01:48:20.116Z,6.29
2019-04-29T01:48:20.716Z,6.32
2019-04-29T01:48:21.314Z,6.28
2019-04-29T01:48:21.913Z,6.32
2019-04-29T01:48:22.513Z,6.33
2019-04-29T01:48:24.316Z,6.26
2019-04-29T01:49:17.768Z,6.25
2019-04-29T01:49:18.366Z,6.30
2019-04-29T01:49:18.965Z,6.32
2019-04-29T01:49:19.570Z,6.30
2019-04-29T01:49:20.167Z,6.35
2019-04-29T01:50:16.445Z,6.35
2019-04-29T01:50:17.040Z,6.32
2019-04-29T01:50:17.641Z,6.30
2019-04-29T01:50:18.241Z,6.25
2019-04-29T01:50:18.839Z,6.32
2019-04-29T01:50:19.438Z,6.32
2019-04-29T01:51:14.129Z,6.25
2019-04-29T01:51:14.693Z,6.25
2019-04-29T01:51:15.293Z,6.33
2019-04-29T01:51:15.893Z,6.30
2019-04-29T01:51:16.492Z,6.21
2019-04-29T01:51:17.098Z,6.33
2019-04-29T01:52:11.748Z,6.33
2019-04-29T01:52:12.420Z,6.26
2019-04-29T01:52:12.948Z,6.25
2019-04-29T01:52:13.544Z,6.18
2019-04-29T01:52:14.144Z,6.28
2019-04-29T01:53:10.423Z,6.21
2019-04-29T01:53:11.026Z,6.29
2019-04-29T01:53:11.620Z,6.28
2019-04-29T01:53:12.219Z,6.22
2019-04-29T01:53:12.829Z,6.21
2019-04-29T01:53:13.419Z,6.26
2019-04-29T01:54:09.100Z,6.29
2019-04-29T01:54:09.695Z,6.28
2019-04-29T01:54:10.295Z,6.29
2019-04-29T01:54:10.894Z,6.32
2019-04-29T01:54:11.495Z,6.30
2019-04-29T01:54:12.102Z,6.28
2019-04-29T01:55:07.774Z,6.25
2019-04-29T01:55:08.374Z,6.30
2019-04-29T01:55:08.970Z,6.28
2019-04-29T01:55:09.571Z,6.16
2019-04-29T01:55:10.170Z,6.28
2019-04-29T01:55:10.772Z,6.26
2019-04-29T01:56:06.449Z,6.22
2019-04-29T01:56:07.047Z,6.26
2019-04-29T01:56:07.647Z,6.25
2019-04-29T01:56:08.246Z,6.25
2019-04-29T01:56:08.846Z,6.28
2019-04-29T01:56:10.646Z,6.25
2019-04-29T01:57:05.150Z,6.21
2019-04-29T01:57:05.724Z,6.30
2019-04-29T01:57:06.322Z,6.21
2019-04-29T01:57:06.923Z,6.19
2019-04-29T01:57:07.528Z,6.21
2019-04-29T01:58:03.800Z,6.22
2019-04-29T01:58:04.399Z,6.26
2019-04-29T01:58:04.998Z,6.21
2019-04-29T01:58:05.598Z,6.26
2019-04-29T01:58:06.202Z,6.16
2019-04-29T01:58:06.798Z,6.32
2019-04-29T01:59:01.454Z,6.19
2019-04-29T01:59:02.051Z,6.28
2019-04-29T01:59:02.651Z,6.25
2019-04-29T01:59:03.250Z,6.18
2019-04-29T01:59:03.851Z,6.22
2019-04-29T01:59:04.462Z,6.26
2019-04-29T01:59:59.105Z,6.28
2019-04-29T01:59:59.704Z,6.21
2019-04-29T02:00:00.344Z,6.26
2019-04-29T02:00:00.904Z,6.25
2019-04-29T02:00:01.502Z,6.30
2019-04-29T02:00:57.782Z,6.28
2019-04-29T02:00:58.377Z,6.28
2019-04-29T02:00:58.977Z,6.32
2019-04-29T02:00:59.577Z,6.29
2019-04-29T02:01:00.181Z,6.30
2019-04-29T02:01:00.778Z,6.28
2019-04-29T02:01:55.458Z,6.28
2019-04-29T02:01:56.030Z,6.29
2019-04-29T02:01:56.629Z,6.28
2019-04-29T02:01:57.230Z,6.19
2019-04-29T02:01:57.830Z,6.28
2019-04-29T02:01:58.430Z,6.35
2019-04-29T02:02:53.087Z,6.26
2019-04-29T02:02:53.681Z,6.30
2019-04-29T02:02:54.282Z,6.26
2019-04-29T02:02:54.881Z,6.25
2019-04-29T02:02:55.480Z,6.19
2019-04-29T02:03:50.735Z,6.30
2019-04-29T02:03:51.335Z,6.26
2019-04-29T02:03:51.933Z,6.18
2019-04-29T02:03:52.537Z,6.29
2019-04-29T02:03:53.133Z,6.30
2019-04-29T02:03:53.732Z,6.29
2019-04-29T02:04:49.412Z,6.25
2019-04-29T02:04:50.009Z,6.26
2019-04-29T02:04:50.607Z,6.30
2019-04-29T02:04:51.209Z,6.30
2019-04-29T02:04:51.811Z,6.32
2019-04-29T02:04:52.407Z,6.22
2019-04-29T02:05:48.086Z,6.30
2019-04-29T02:05:48.684Z,6.30
2019-04-29T02:05:49.284Z,6.14
2019-04-29T02:05:49.885Z,6.25
2019-04-29T02:05:50.485Z,6.26
2019-04-29T02:05:51.083Z,6.28
2019-04-29T02:06:46.762Z,6.25
2019-04-29T02:06:47.360Z,6.25
2019-04-29T02:06:47.959Z,6.33
2019-04-29T02:06:48.559Z,6.22
2019-04-29T02:06:49.160Z,6.19
2019-04-29T02:06:50.959Z,6.32
2019-04-29T02:07:45.470Z,6.18
2019-04-29T02:07:46.036Z,6.19
2019-04-29T02:07:46.638Z,6.25
2019-04-29T02:07:47.236Z,6.29
2019-04-29T02:07:47.834Z,6.28
2019-04-29T02:08:44.114Z,6.26
2019-04-29T02:08:44.711Z,6.32
2019-04-29T02:08:45.311Z,6.21
2019-04-29T02:08:45.910Z,6.30
2019-04-29T02:08:46.512Z,6.33
2019-04-29T02:08:47.113Z,6.26
2019-04-29T02:09:41.766Z,6.19
2019-04-29T02:09:42.367Z,6.28
2019-04-29T02:09:42.962Z,6.25
2019-04-29T02:09:43.564Z,6.21
2019-04-29T02:09:44.163Z,6.16
2019-04-29T02:09:44.766Z,6.25
2019-04-29T02:10:40.444Z,6.19
2019-04-29T02:10:41.038Z,6.21
2019-04-29T02:10:41.638Z,6.19
2019-04-29T02:10:42.237Z,6.29
2019-04-29T02:10:42.838Z,6.32
2019-04-29T02:10:44.638Z,6.29
2019-04-29T02:11:38.094Z,6.26
2019-04-29T02:11:38.692Z,6.29
2019-04-29T02:11:39.291Z,6.18
2019-04-29T02:11:39.894Z,6.21
2019-04-29T02:11:40.490Z,6.22
2019-04-29T02:12:36.769Z,6.16
2019-04-29T02:12:37.366Z,6.26
2019-04-29T02:12:37.966Z,6.19
2019-04-29T02:12:38.566Z,6.21
2019-04-29T02:12:39.166Z,6.25
2019-04-29T02:12:39.765Z,6.28
2019-04-29T02:13:34.453Z,6.22
2019-04-29T02:13:35.021Z,6.29
2019-04-29T02:13:35.618Z,6.19
2019-04-29T02:13:36.218Z,6.22
2019-04-29T02:13:36.817Z,6.22
2019-04-29T02:13:37.419Z,6.19
2019-04-29T02:14:32.104Z,6.29
2019-04-29T02:14:32.670Z,6.26
2019-04-29T02:14:33.269Z,6.30
2019-04-29T02:14:33.869Z,6.21
2019-04-29T02:14:34.469Z,6.25
2019-04-29T02:15:29.724Z,6.29
2019-04-29T02:15:30.372Z,6.21
2019-04-29T02:15:30.922Z,6.25
2019-04-29T02:15:31.524Z,6.25
2019-04-29T02:15:32.122Z,6.21
2019-04-29T02:15:32.721Z,6.25
2019-04-29T02:16:28.400Z,6.21
2019-04-29T02:16:28.998Z,6.25
2019-04-29T02:16:29.598Z,6.32
2019-04-29T02:16:30.201Z,6.25
2019-04-29T02:16:30.796Z,6.22
2019-04-29T02:16:31.397Z,6.25
2019-04-29T02:17:27.078Z,6.19
2019-04-29T02:17:27.672Z,6.19
2019-04-29T02:17:28.271Z,6.33
2019-04-29T02:17:28.871Z,6.29
2019-04-29T02:17:29.472Z,6.25
2019-04-29T02:17:30.072Z,6.32
2019-04-29T02:18:25.751Z,6.22
2019-04-29T02:18:26.349Z,6.28
2019-04-29T02:18:26.949Z,6.26
2019-04-29T02:18:27.548Z,6.29
2019-04-29T02:18:28.148Z,6.29
2019-04-29T02:18:29.946Z,6.30
2019-04-29T02:19:23.428Z,6.28
2019-04-29T02:19:24.001Z,6.28
2019-04-29T02:19:24.602Z,6.22
2019-04-29T02:19:25.207Z,6.28
2019-04-29T02:19:25.800Z,6.25
2019-04-29T02:20:21.056Z,6.25
2019-04-29T02:20:21.652Z,6.30
2019-04-29T02:20:22.252Z,6.28
2019-04-29T02:20:22.853Z,6.26
2019-04-29T02:20:23.452Z,6.26
2019-04-29T02:20:24.052Z,6.26
2019-04-29T02:21:18.708Z,6.19
2019-04-29T02:21:19.307Z,6.28
2019-04-29T02:21:19.904Z,6.25
2019-04-29T02:21:20.504Z,6.25
2019-04-29T02:21:21.107Z,6.32
2019-04-29T02:21:21.704Z,6.29
2019-04-29T02:22:16.361Z,6.22
2019-04-29T02:22:16.957Z,6.25
2019-04-29T02:22:17.557Z,6.30
2019-04-29T02:22:18.156Z,6.22
2019-04-29T02:22:18.757Z,6.26
2019-04-29T02:23:14.011Z,6.19
2019-04-29T02:23:14.608Z,6.18
2019-04-29T02:23:15.211Z,6.19
2019-04-29T02:23:15.806Z,6.22
2019-04-29T02:23:16.409Z,6.19
2019-04-29T02:23:17.006Z,6.18
2019-04-29T02:24:11.688Z,6.26
2019-04-29T02:24:12.261Z,6.25
2019-04-29T02:24:12.862Z,6.22
2019-04-29T02:24:13.462Z,6.22
2019-04-29T02:24:14.059Z,6.18
2019-04-29T02:24:14.662Z,6.29
2019-04-29T02:25:09.318Z,6.18
2019-04-29T02:25:09.911Z,6.19
2019-04-29T02:25:10.509Z,6.21
2019-04-29T02:25:11.110Z,6.32
2019-04-29T02:25:11.710Z,6.22
2019-04-29T02:26:06.966Z,6.26
2019-04-29T02:26:07.562Z,6.26
2019-04-29T02:26:08.164Z,6.25
2019-04-29T02:26:08.762Z,6.25
2019-04-29T02:26:09.365Z,6.30
2019-04-29T02:26:09.983Z,6.21
2019-04-29T02:27:05.882Z,6.22
2019-04-29T02:27:06.241Z,6.32
2019-04-29T02:27:06.844Z,6.21
2019-04-29T02:27:07.441Z,6.32
2019-04-29T02:27:08.037Z,6.28
2019-04-29T02:27:08.641Z,6.35
2019-04-29T02:28:04.319Z,6.19
2019-04-29T02:28:04.913Z,6.32
2019-04-29T02:28:05.513Z,6.18
2019-04-29T02:28:06.113Z,6.25
2019-04-29T02:28:06.712Z,6.25
2019-04-29T02:28:07.314Z,6.32
2019-04-29T02:29:03.023Z,6.19
2019-04-29T02:29:03.589Z,6.25
2019-04-29T02:29:04.205Z,6.29
2019-04-29T02:29:04.789Z,6.33
2019-04-29T02:29:05.393Z,6.22
2019-04-29T02:29:07.188Z,6.35
2019-04-29T02:30:01.684Z,6.25
2019-04-29T02:30:02.269Z,6.25
2019-04-29T02:30:02.864Z,6.26
2019-04-29T02:30:03.463Z,6.19
2019-04-29T02:30:04.066Z,6.29
2019-04-29T02:30:59.322Z,6.22
2019-04-29T02:30:59.946Z,6.30
2019-04-29T02:31:00.519Z,6.26
2019-04-29T02:31:01.117Z,6.22
2019-04-29T02:31:01.720Z,6.21
2019-04-29T02:31:02.318Z,6.26
2019-04-29T02:31:56.973Z,6.16
2019-04-29T02:31:57.570Z,6.30
2019-04-29T02:31:58.169Z,6.21
2019-04-29T02:31:58.772Z,6.25
2019-04-29T02:31:59.369Z,6.25
2019-04-29T02:31:59.969Z,6.26
2019-04-29T02:32:55.648Z,6.21
2019-04-29T02:32:56.249Z,6.28
2019-04-29T02:32:56.845Z,6.26
2019-04-29T02:32:57.444Z,6.25
2019-04-29T02:32:58.049Z,6.25
2019-04-29T02:32:59.847Z,6.32
2019-04-29T02:33:53.302Z,6.21
2019-04-29T02:33:53.898Z,6.18
2019-04-29T02:33:54.498Z,6.22
2019-04-29T02:33:55.097Z,6.22
2019-04-29T02:33:55.699Z,6.26
2019-04-29T02:34:51.999Z,6.18
2019-04-29T02:34:52.582Z,6.25
2019-04-29T02:34:53.172Z,6.32
2019-04-29T02:34:53.772Z,6.29
2019-04-29T02:34:54.371Z,6.30
2019-04-29T02:34:54.973Z,6.30
2019-04-29T02:35:49.660Z,6.21
2019-04-29T02:35:50.225Z,6.26
2019-04-29T02:35:50.825Z,6.28
2019-04-29T02:35:51.424Z,6.30
2019-04-29T02:35:52.027Z,6.32
2019-04-29T02:35:52.623Z,6.32
2019-04-29T02:36:47.281Z,6.29
2019-04-29T02:36:47.885Z,6.32
2019-04-29T02:36:48.477Z,6.29
2019-04-29T02:36:49.075Z,6.28
2019-04-29T02:36:49.679Z,6.25
2019-04-29T02:37:44.932Z,6.28
2019-04-29T02:37:45.527Z,6.26
2019-04-29T02:37:46.127Z,6.36
2019-04-29T02:37:46.727Z,6.28
2019-04-29T02:37:47.327Z,6.26
2019-04-29T02:37:47.927Z,6.22
2019-04-29T02:38:42.586Z,6.30
2019-04-29T02:38:43.181Z,6.16
2019-04-29T02:38:43.781Z,6.26
2019-04-29T02:38:44.381Z,6.26
2019-04-29T02:38:44.986Z,6.30
2019-04-29T02:38:45.579Z,6.28
2019-04-29T02:39:40.266Z,6.19
2019-04-29T02:39:40.831Z,6.21
2019-04-29T02:39:41.431Z,6.28
2019-04-29T02:39:42.031Z,6.32
2019-04-29T02:39:42.631Z,6.21
2019-04-29T02:40:37.886Z,6.30
2019-04-29T02:40:38.483Z,6.30
2019-04-29T02:40:39.082Z,6.18
2019-04-29T02:40:39.683Z,6.25
2019-04-29T02:40:40.283Z,6.25
2019-04-29T02:40:40.889Z,6.25
2019-04-29T02:41:36.561Z,6.30